sensor_id;sensor_type;location;lat;lon;timestamp;temperature;humidity
19435;DHT22;9853;50.848;4.108;2024-02-15T00:01:49;13.10;99.90
19435;DHT22;9853;50.848;4.108;2024-02-15T00:03:50;13.30;99.90
19435;DHT22;9853;50.848;4.108;2024-02-15T00:05:51;13.30;99.90
19435;DHT22;9853;50.848;4.108;2024-02-15T00:07:52;13.20;99.90
19435;DHT22;9853;50.848;4.108;2024-02-15T00:09:53;13.30;99.90
19435;DHT22;9853;50.848;4.108;2024-02-15T00:11:57;13.30;99.90
19435;DHT22;9853;50.848;4.108;2024-02-15T00:14:00;13.20;99.90
19435;DHT22;9853;50.848;4.108;2024-02-15T00:16:01;13.10;99.90
19435;DHT22;9853;50.848;4.108;2024-02-15T00:18:02;13.10;99.90
19435;DHT22;9853;50.848;4.108;2024-02-15T00:20:04;13.10;99.90
19435;DHT22;9853;50.848;4.108;2024-02-15T00:22:10;13.10;99.90
19435;DHT22;9853;50.848;4.108;2024-02-15T00:24:11;13.10;99.90
19435;DHT22;9853;50.848;4.108;2024-02-15T00:26:12;13.10;99.90
19435;DHT22;9853;50.848;4.108;2024-02-15T00:28:13;13.20;99.90
19435;DHT22;9853;50.848;4.108;2024-02-15T00:30:14;13.20;99.90
19435;DHT22;9853;50.848;4.108;2024-02-15T00:32:17;13.10;99.90
19435;DHT22;9853;50.848;4.108;2024-02-15T00:34:18;13.00;99.90
19435;DHT22;9853;50.848;4.108;2024-02-15T00:36:19;13.10;99.90
19435;DHT22;9853;50.848;4.108;2024-02-15T00:38:20;13.00;99.90
19435;DHT22;9853;50.848;4.108;2024-02-15T00:40:21;13.00;99.90
19435;DHT22;9853;50.848;4.108;2024-02-15T00:42:21;13.00;99.90
19435;DHT22;9853;50.848;4.108;2024-02-15T00:44:22;13.00;99.90
19435;DHT22;9853;50.848;4.108;2024-02-15T00:46:23;13.00;99.90
19435;DHT22;9853;50.848;4.108;2024-02-15T00:48:27;12.90;99.90
19435;DHT22;9853;50.848;4.108;2024-02-15T00:50:30;12.80;99.90
19435;DHT22;9853;50.848;4.108;2024-02-15T00:52:31;12.80;99.90
19435;DHT22;9853;50.848;4.108;2024-02-15T00:54:32;12.80;99.90
19435;DHT22;9853;50.848;4.108;2024-02-15T00:56:33;12.80;99.90
19435;DHT22;9853;50.848;4.108;2024-02-15T00:58:34;12.70;99.90
19435;DHT22;9853;50.848;4.108;2024-02-15T01:00:35;12.70;99.90
19435;DHT22;9853;50.848;4.108;2024-02-15T01:02:35;12.80;99.90
19435;DHT22;9853;50.848;4.108;2024-02-15T01:04:36;12.90;99.90
19435;DHT22;9853;50.848;4.108;2024-02-15T01:06:37;12.90;99.90
19435;DHT22;9853;50.848;4.108;2024-02-15T01:08:38;12.90;99.90
19435;DHT22;9853;50.848;4.108;2024-02-15T01:10:39;12.90;99.90
19435;DHT22;9853;50.848;4.108;2024-02-15T01:12:40;12.80;99.90
19435;DHT22;9853;50.848;4.108;2024-02-15T01:14:41;12.70;99.90
19435;DHT22;9853;50.848;4.108;2024-02-15T01:16:44;12.80;99.90
19435;DHT22;9853;50.848;4.108;2024-02-15T01:18:45;12.80;99.90
19435;DHT22;9853;50.848;4.108;2024-02-15T01:20:46;12.90;99.90
19435;DHT22;9853;50.848;4.108;2024-02-15T01:22:47;12.80;99.90
19435;DHT22;9853;50.848;4.108;2024-02-15T01:24:48;12.90;99.90
19435;DHT22;9853;50.848;4.108;2024-02-15T01:26:49;12.80;99.90
19435;DHT22;9853;50.848;4.108;2024-02-15T01:28:50;12.80;99.90
19435;DHT22;9853;50.848;4.108;2024-02-15T01:30:51;12.80;99.90
19435;DHT22;9853;50.848;4.108;2024-02-15T01:32:51;12.80;99.90
19435;DHT22;9853;50.848;4.108;2024-02-15T01:34:52;12.80;99.90
19435;DHT22;9853;50.848;4.108;2024-02-15T01:36:55;12.80;99.90
19435;DHT22;9853;50.848;4.108;2024-02-15T01:38:56;12.80;99.90
19435;DHT22;9853;50.848;4.108;2024-02-15T01:40:57;12.80;99.90
19435;DHT22;9853;50.848;4.108;2024-02-15T01:42:58;12.70;99.90
19435;DHT22;9853;50.848;4.108;2024-02-15T01:45:02;12.60;99.90
19435;DHT22;9853;50.848;4.108;2024-02-15T01:47:03;12.60;99.90
19435;DHT22;9853;50.848;4.108;2024-02-15T01:49:05;12.70;99.90
19435;DHT22;9853;50.848;4.108;2024-02-15T01:51:10;12.80;99.90
19435;DHT22;9853;50.848;4.108;2024-02-15T01:53:13;12.80;99.90
19435;DHT22;9853;50.848;4.108;2024-02-15T01:55:15;12.70;99.90
19435;DHT22;9853;50.848;4.108;2024-02-15T01:57:19;12.70;99.90
19435;DHT22;9853;50.848;4.108;2024-02-15T01:59:23;12.60;99.90
19435;DHT22;9853;50.848;4.108;2024-02-15T02:01:25;12.60;99.90
19435;DHT22;9853;50.848;4.108;2024-02-15T02:03:27;12.60;99.90
19435;DHT22;9853;50.848;4.108;2024-02-15T02:05:28;12.80;99.90
19435;DHT22;9853;50.848;4.108;2024-02-15T02:07:31;12.80;99.90
19435;DHT22;9853;50.848;4.108;2024-02-15T02:09:32;12.70;99.90
19435;DHT22;9853;50.848;4.108;2024-02-15T02:11:33;12.70;99.90
19435;DHT22;9853;50.848;4.108;2024-02-15T02:13:34;12.60;99.90
19435;DHT22;9853;50.848;4.108;2024-02-15T02:15:35;12.50;99.90
19435;DHT22;9853;50.848;4.108;2024-02-15T02:17:37;12.50;99.90
19435;DHT22;9853;50.848;4.108;2024-02-15T02:19:41;12.60;99.90
19435;DHT22;9853;50.848;4.108;2024-02-15T02:21:43;12.60;99.90
19435;DHT22;9853;50.848;4.108;2024-02-15T02:23:46;12.60;99.90
19435;DHT22;9853;50.848;4.108;2024-02-15T02:25:52;12.70;99.90
19435;DHT22;9853;50.848;4.108;2024-02-15T02:27:56;12.70;99.90
19435;DHT22;9853;50.848;4.108;2024-02-15T02:29:57;12.80;99.90
19435;DHT22;9853;50.848;4.108;2024-02-15T02:32:00;12.80;99.90
19435;DHT22;9853;50.848;4.108;2024-02-15T02:34:01;12.90;99.90
19435;DHT22;9853;50.848;4.108;2024-02-15T02:36:01;12.90;99.90
19435;DHT22;9853;50.848;4.108;2024-02-15T02:38:03;12.80;99.90
19435;DHT22;9853;50.848;4.108;2024-02-15T02:40:07;12.80;99.90
19435;DHT22;9853;50.848;4.108;2024-02-15T02:42:09;12.90;99.90
19435;DHT22;9853;50.848;4.108;2024-02-15T02:44:10;12.90;99.90
19435;DHT22;9853;50.848;4.108;2024-02-15T02:46:11;12.80;99.90
19435;DHT22;9853;50.848;4.108;2024-02-15T02:48:12;12.80;99.90
19435;DHT22;9853;50.848;4.108;2024-02-15T02:50:13;12.70;99.90
19435;DHT22;9853;50.848;4.108;2024-02-15T02:52:15;12.60;99.90
19435;DHT22;9853;50.848;4.108;2024-02-15T02:54:15;12.60;99.90
19435;DHT22;9853;50.848;4.108;2024-02-15T02:56:16;12.60;99.90
19435;DHT22;9853;50.848;4.108;2024-02-15T02:58:19;12.50;99.90
19435;DHT22;9853;50.848;4.108;2024-02-15T03:00:20;12.50;99.90
19435;DHT22;9853;50.848;4.108;2024-02-15T03:02:22;12.50;99.90
19435;DHT22;9853;50.848;4.108;2024-02-15T03:04:23;12.40;99.90
19435;DHT22;9853;50.848;4.108;2024-02-15T03:06:24;12.40;99.90
19435;DHT22;9853;50.848;4.108;2024-02-15T03:08:28;12.40;99.90
19435;DHT22;9853;50.848;4.108;2024-02-15T03:10:29;12.30;99.90
19435;DHT22;9853;50.848;4.108;2024-02-15T03:12:30;12.30;99.90
19435;DHT22;9853;50.848;4.108;2024-02-15T03:14:31;12.30;99.90
19435;DHT22;9853;50.848;4.108;2024-02-15T03:16:39;12.30;99.90
19435;DHT22;9853;50.848;4.108;2024-02-15T03:18:39;12.30;99.90
19435;DHT22;9853;50.848;4.108;2024-02-15T03:20:42;12.40;99.90
19435;DHT22;9853;50.848;4.108;2024-02-15T03:22:43;12.40;99.90
19435;DHT22;9853;50.848;4.108;2024-02-15T03:24:44;12.40;99.90
19435;DHT22;9853;50.848;4.108;2024-02-15T03:26:45;12.40;99.90
19435;DHT22;9853;50.848;4.108;2024-02-15T03:28:46;12.40;99.90
19435;DHT22;9853;50.848;4.108;2024-02-15T03:30:47;12.40;99.90
19435;DHT22;9853;50.848;4.108;2024-02-15T03:32:48;12.50;99.90
19435;DHT22;9853;50.848;4.108;2024-02-15T03:34:51;12.50;99.90
19435;DHT22;9853;50.848;4.108;2024-02-15T03:36:52;12.50;99.90
19435;DHT22;9853;50.848;4.108;2024-02-15T03:38:54;12.60;99.90
19435;DHT22;9853;50.848;4.108;2024-02-15T03:40:56;12.50;99.90
19435;DHT22;9853;50.848;4.108;2024-02-15T03:42:57;12.50;99.90
19435;DHT22;9853;50.848;4.108;2024-02-15T03:44:58;12.50;99.90
19435;DHT22;9853;50.848;4.108;2024-02-15T03:46:58;12.60;99.90
19435;DHT22;9853;50.848;4.108;2024-02-15T03:48:59;12.50;99.90
19435;DHT22;9853;50.848;4.108;2024-02-15T03:51:00;12.50;99.90
19435;DHT22;9853;50.848;4.108;2024-02-15T03:53:02;12.40;99.90
19435;DHT22;9853;50.848;4.108;2024-02-15T03:55:04;12.40;99.90
19435;DHT22;9853;50.848;4.108;2024-02-15T03:57:05;12.40;99.90
19435;DHT22;9853;50.848;4.108;2024-02-15T03:59:07;12.30;99.90
19435;DHT22;9853;50.848;4.108;2024-02-15T04:01:08;12.30;99.90
19435;DHT22;9853;50.848;4.108;2024-02-15T04:03:10;12.20;99.90
19435;DHT22;9853;50.848;4.108;2024-02-15T04:05:11;12.20;99.90
19435;DHT22;9853;50.848;4.108;2024-02-15T04:07:16;12.20;99.90
19435;DHT22;9853;50.848;4.108;2024-02-15T04:09:18;12.20;99.90
19435;DHT22;9853;50.848;4.108;2024-02-15T04:11:21;12.20;99.90
19435;DHT22;9853;50.848;4.108;2024-02-15T04:13:21;12.20;99.90
19435;DHT22;9853;50.848;4.108;2024-02-15T04:15:22;12.30;99.90
19435;DHT22;9853;50.848;4.108;2024-02-15T04:17:23;12.30;99.90
19435;DHT22;9853;50.848;4.108;2024-02-15T04:19:24;12.30;99.90
19435;DHT22;9853;50.848;4.108;2024-02-15T04:21:25;12.50;99.90
19435;DHT22;9853;50.848;4.108;2024-02-15T04:23:28;12.60;99.90
19435;DHT22;9853;50.848;4.108;2024-02-15T04:25:30;12.70;99.90
19435;DHT22;9853;50.848;4.108;2024-02-15T04:27:32;12.70;99.90
19435;DHT22;9853;50.848;4.108;2024-02-15T04:29:34;12.60;99.90
19435;DHT22;9853;50.848;4.108;2024-02-15T04:31:35;12.80;99.90
19435;DHT22;9853;50.848;4.108;2024-02-15T04:33:39;12.80;99.90
19435;DHT22;9853;50.848;4.108;2024-02-15T04:35:41;12.80;99.90
19435;DHT22;9853;50.848;4.108;2024-02-15T04:37:42;12.80;99.90
19435;DHT22;9853;50.848;4.108;2024-02-15T04:39:43;12.80;99.90
19435;DHT22;9853;50.848;4.108;2024-02-15T04:41:44;12.90;99.90
19435;DHT22;9853;50.848;4.108;2024-02-15T04:43:47;13.10;99.90
19435;DHT22;9853;50.848;4.108;2024-02-15T04:45:48;13.00;99.90
19435;DHT22;9853;50.848;4.108;2024-02-15T04:47:49;12.90;99.90
19435;DHT22;9853;50.848;4.108;2024-02-15T04:49:53;12.80;99.90
19435;DHT22;9853;50.848;4.108;2024-02-15T04:51:54;12.70;99.90
19435;DHT22;9853;50.848;4.108;2024-02-15T04:53:54;12.60;99.90
19435;DHT22;9853;50.848;4.108;2024-02-15T04:55:58;12.70;99.90
19435;DHT22;9853;50.848;4.108;2024-02-15T04:58:01;12.70;99.90
19435;DHT22;9853;50.848;4.108;2024-02-15T05:00:03;12.70;99.90
19435;DHT22;9853;50.848;4.108;2024-02-15T05:02:10;12.60;99.90
19435;DHT22;9853;50.848;4.108;2024-02-15T05:04:12;12.60;99.90
19435;DHT22;9853;50.848;4.108;2024-02-15T05:06:14;12.50;99.90
19435;DHT22;9853;50.848;4.108;2024-02-15T05:08:15;12.50;99.90
19435;DHT22;9853;50.848;4.108;2024-02-15T05:10:16;12.30;99.90
19435;DHT22;9853;50.848;4.108;2024-02-15T05:12:23;12.40;99.90
19435;DHT22;9853;50.848;4.108;2024-02-15T05:14:28;12.40;99.90
19435;DHT22;9853;50.848;4.108;2024-02-15T05:16:29;12.50;99.90
19435;DHT22;9853;50.848;4.108;2024-02-15T05:18:32;12.70;99.90
19435;DHT22;9853;50.848;4.108;2024-02-15T05:20:35;12.70;99.90
19435;DHT22;9853;50.848;4.108;2024-02-15T05:22:36;12.60;99.90
19435;DHT22;9853;50.848;4.108;2024-02-15T05:24:39;12.60;99.90
19435;DHT22;9853;50.848;4.108;2024-02-15T05:26:41;12.60;99.90
19435;DHT22;9853;50.848;4.108;2024-02-15T05:28:43;12.40;99.90
19435;DHT22;9853;50.848;4.108;2024-02-15T05:30:44;12.50;99.90
19435;DHT22;9853;50.848;4.108;2024-02-15T05:32:45;12.50;99.90
19435;DHT22;9853;50.848;4.108;2024-02-15T05:34:47;12.40;99.90
19435;DHT22;9853;50.848;4.108;2024-02-15T05:36:48;12.40;99.90
19435;DHT22;9853;50.848;4.108;2024-02-15T05:38:51;12.40;99.90
19435;DHT22;9853;50.848;4.108;2024-02-15T05:40:53;12.30;99.90
19435;DHT22;9853;50.848;4.108;2024-02-15T05:42:57;12.30;99.90
19435;DHT22;9853;50.848;4.108;2024-02-15T05:45:35;12.30;99.90
19435;DHT22;9853;50.848;4.108;2024-02-15T05:47:37;12.30;99.90
19435;DHT22;9853;50.848;4.108;2024-02-15T05:49:37;12.40;99.90
19435;DHT22;9853;50.848;4.108;2024-02-15T05:51:38;12.30;99.90
19435;DHT22;9853;50.848;4.108;2024-02-15T05:53:39;12.20;99.90
19435;DHT22;9853;50.848;4.108;2024-02-15T05:55:41;12.20;99.90
19435;DHT22;9853;50.848;4.108;2024-02-15T05:57:45;12.20;99.90
19435;DHT22;9853;50.848;4.108;2024-02-15T05:59:46;12.10;99.90
19435;DHT22;9853;50.848;4.108;2024-02-15T06:01:47;12.10;99.90
19435;DHT22;9853;50.848;4.108;2024-02-15T06:03:50;12.10;99.90
19435;DHT22;9853;50.848;4.108;2024-02-15T06:05:58;12.10;99.90
19435;DHT22;9853;50.848;4.108;2024-02-15T06:08:02;12.10;99.90
19435;DHT22;9853;50.848;4.108;2024-02-15T06:10:11;12.10;99.90
19435;DHT22;9853;50.848;4.108;2024-02-15T06:12:14;12.10;99.90
19435;DHT22;9853;50.848;4.108;2024-02-15T06:14:18;12.10;99.90
19435;DHT22;9853;50.848;4.108;2024-02-15T06:16:41;12.10;99.90
19435;DHT22;9853;50.848;4.108;2024-02-15T06:18:44;12.10;99.90
19435;DHT22;9853;50.848;4.108;2024-02-15T06:20:51;12.20;99.90
19435;DHT22;9853;50.848;4.108;2024-02-15T06:22:55;12.20;99.90
19435;DHT22;9853;50.848;4.108;2024-02-15T06:25:01;12.20;99.90
19435;DHT22;9853;50.848;4.108;2024-02-15T06:27:05;12.20;99.90
19435;DHT22;9853;50.848;4.108;2024-02-15T06:29:06;12.20;99.90
19435;DHT22;9853;50.848;4.108;2024-02-15T06:31:36;12.20;99.90
19435;DHT22;9853;50.848;4.108;2024-02-15T06:34:02;12.20;99.90
19435;DHT22;9853;50.848;4.108;2024-02-15T06:36:23;12.10;99.90
19435;DHT22;9853;50.848;4.108;2024-02-15T06:38:47;12.10;99.90
19435;DHT22;9853;50.848;4.108;2024-02-15T06:41:18;12.20;99.90
19435;DHT22;9853;50.848;4.108;2024-02-15T06:43:20;12.10;99.90
19435;DHT22;9853;50.848;4.108;2024-02-15T06:45:30;12.10;99.90
19435;DHT22;9853;50.848;4.108;2024-02-15T06:47:32;12.20;99.90
19435;DHT22;9853;50.848;4.108;2024-02-15T06:49:39;12.20;99.90
19435;DHT22;9853;50.848;4.108;2024-02-15T06:51:43;12.20;99.90
19435;DHT22;9853;50.848;4.108;2024-02-15T06:53:50;12.20;99.90
19435;DHT22;9853;50.848;4.108;2024-02-15T06:55:56;12.20;99.90
19435;DHT22;9853;50.848;4.108;2024-02-15T06:57:57;12.30;99.90
19435;DHT22;9853;50.848;4.108;2024-02-15T07:00:05;12.30;99.90
19435;DHT22;9853;50.848;4.108;2024-02-15T07:02:15;12.20;99.90
19435;DHT22;9853;50.848;4.108;2024-02-15T07:04:39;12.20;99.90
19435;DHT22;9853;50.848;4.108;2024-02-15T07:06:47;12.20;99.90
19435;DHT22;9853;50.848;4.108;2024-02-15T07:08:50;12.20;99.90
19435;DHT22;9853;50.848;4.108;2024-02-15T07:11:04;12.30;99.90
19435;DHT22;9853;50.848;4.108;2024-02-15T07:13:08;12.30;99.90
19435;DHT22;9853;50.848;4.108;2024-02-15T07:15:13;12.20;99.90
19435;DHT22;9853;50.848;4.108;2024-02-15T07:17:17;12.20;99.90
19435;DHT22;9853;50.848;4.108;2024-02-15T07:19:19;12.30;99.90
19435;DHT22;9853;50.848;4.108;2024-02-15T07:21:20;12.30;99.90
19435;DHT22;9853;50.848;4.108;2024-02-15T07:23:29;12.30;99.90
19435;DHT22;9853;50.848;4.108;2024-02-15T07:25:30;12.30;99.90
19435;DHT22;9853;50.848;4.108;2024-02-15T07:27:53;12.30;99.90
19435;DHT22;9853;50.848;4.108;2024-02-15T07:29:57;12.30;99.90
19435;DHT22;9853;50.848;4.108;2024-02-15T07:32:07;12.20;99.90
19435;DHT22;9853;50.848;4.108;2024-02-15T07:34:09;12.20;99.90
19435;DHT22;9853;50.848;4.108;2024-02-15T07:36:10;12.30;99.90
19435;DHT22;9853;50.848;4.108;2024-02-15T07:38:11;12.30;99.90
19435;DHT22;9853;50.848;4.108;2024-02-15T07:40:12;12.40;99.90
19435;DHT22;9853;50.848;4.108;2024-02-15T07:42:17;12.50;99.90
19435;DHT22;9853;50.848;4.108;2024-02-15T07:44:21;12.50;99.90
19435;DHT22;9853;50.848;4.108;2024-02-15T07:46:41;12.60;99.90
19435;DHT22;9853;50.848;4.108;2024-02-15T07:48:51;12.60;99.90
19435;DHT22;9853;50.848;4.108;2024-02-15T07:50:53;12.60;99.90
19435;DHT22;9853;50.848;4.108;2024-02-15T07:52:57;12.70;99.90
19435;DHT22;9853;50.848;4.108;2024-02-15T07:55:00;12.70;99.90
19435;DHT22;9853;50.848;4.108;2024-02-15T07:57:11;12.70;99.90
19435;DHT22;9853;50.848;4.108;2024-02-15T07:59:25;12.70;99.90
19435;DHT22;9853;50.848;4.108;2024-02-15T08:01:44;12.70;99.90
19435;DHT22;9853;50.848;4.108;2024-02-15T08:03:51;12.70;99.90
19435;DHT22;9853;50.848;4.108;2024-02-15T08:05:56;12.70;99.90
19435;DHT22;9853;50.848;4.108;2024-02-15T08:07:59;12.80;99.90
19435;DHT22;9853;50.848;4.108;2024-02-15T08:10:05;12.80;99.90
19435;DHT22;9853;50.848;4.108;2024-02-15T08:12:08;12.80;99.90
19435;DHT22;9853;50.848;4.108;2024-02-15T08:14:18;12.80;99.90
19435;DHT22;9853;50.848;4.108;2024-02-15T08:16:22;12.80;99.90
19435;DHT22;9853;50.848;4.108;2024-02-15T08:18:33;12.80;99.90
19435;DHT22;9853;50.848;4.108;2024-02-15T08:20:36;12.80;99.90
19435;DHT22;9853;50.848;4.108;2024-02-15T08:22:46;13.00;99.90
19435;DHT22;9853;50.848;4.108;2024-02-15T08:24:51;13.10;99.90
19435;DHT22;9853;50.848;4.108;2024-02-15T08:26:53;13.00;99.90
19435;DHT22;9853;50.848;4.108;2024-02-15T08:28:55;13.00;99.90
19435;DHT22;9853;50.848;4.108;2024-02-15T08:30:57;13.00;99.90
19435;DHT22;9853;50.848;4.108;2024-02-15T08:32:58;13.10;99.90
19435;DHT22;9853;50.848;4.108;2024-02-15T08:34:58;13.10;99.90
19435;DHT22;9853;50.848;4.108;2024-02-15T08:36:59;13.20;99.90
19435;DHT22;9853;50.848;4.108;2024-02-15T08:39:01;13.20;99.90
19435;DHT22;9853;50.848;4.108;2024-02-15T08:41:02;13.30;99.90
19435;DHT22;9853;50.848;4.108;2024-02-15T08:43:04;13.50;99.90
19435;DHT22;9853;50.848;4.108;2024-02-15T08:45:16;13.60;99.90
19435;DHT22;9853;50.848;4.108;2024-02-15T08:47:17;13.50;99.90
19435;DHT22;9853;50.848;4.108;2024-02-15T08:49:18;13.50;99.90
19435;DHT22;9853;50.848;4.108;2024-02-15T08:51:19;13.50;99.90
19435;DHT22;9853;50.848;4.108;2024-02-15T08:53:23;13.50;99.90
19435;DHT22;9853;50.848;4.108;2024-02-15T08:55:26;13.50;99.90
19435;DHT22;9853;50.848;4.108;2024-02-15T08:57:28;13.50;99.90
19435;DHT22;9853;50.848;4.108;2024-02-15T08:59:29;13.50;99.90
19435;DHT22;9853;50.848;4.108;2024-02-15T09:01:32;13.60;99.90
19435;DHT22;9853;50.848;4.108;2024-02-15T09:03:37;13.70;99.90
19435;DHT22;9853;50.848;4.108;2024-02-15T09:05:41;13.60;99.90
19435;DHT22;9853;50.848;4.108;2024-02-15T09:07:49;13.80;99.90
19435;DHT22;9853;50.848;4.108;2024-02-15T09:10:03;14.00;99.90
19435;DHT22;9853;50.848;4.108;2024-02-15T09:12:04;14.00;99.90
19435;DHT22;9853;50.848;4.108;2024-02-15T09:14:08;14.10;99.90
19435;DHT22;9853;50.848;4.108;2024-02-15T09:16:10;14.00;99.90
19435;DHT22;9853;50.848;4.108;2024-02-15T09:18:12;14.00;99.90
19435;DHT22;9853;50.848;4.108;2024-02-15T09:20:15;13.90;99.90
19435;DHT22;9853;50.848;4.108;2024-02-15T09:22:26;13.80;99.90
19435;DHT22;9853;50.848;4.108;2024-02-15T09:24:36;13.90;99.90
19435;DHT22;9853;50.848;4.108;2024-02-15T09:26:38;13.90;99.90
19435;DHT22;9853;50.848;4.108;2024-02-15T09:28:43;14.20;99.90
19435;DHT22;9853;50.848;4.108;2024-02-15T09:31:02;14.30;99.90
19435;DHT22;9853;50.848;4.108;2024-02-15T09:33:19;14.50;99.90
19435;DHT22;9853;50.848;4.108;2024-02-15T09:35:28;14.70;99.90
19435;DHT22;9853;50.848;4.108;2024-02-15T09:38:00;15.10;99.90
19435;DHT22;9853;50.848;4.108;2024-02-15T09:40:02;15.20;99.90
19435;DHT22;9853;50.848;4.108;2024-02-15T09:42:30;15.50;99.90
19435;DHT22;9853;50.848;4.108;2024-02-15T09:47:48;15.20;99.90
19435;DHT22;9853;50.848;4.108;2024-02-15T09:49:59;14.90;99.90
19435;DHT22;9853;50.848;4.108;2024-02-15T09:52:13;15.00;99.90
19435;DHT22;9853;50.848;4.108;2024-02-15T09:54:25;14.90;99.90
19435;DHT22;9853;50.848;4.108;2024-02-15T09:56:44;15.00;99.90
19435;DHT22;9853;50.848;4.108;2024-02-15T09:58:50;14.80;99.90
19435;DHT22;9853;50.848;4.108;2024-02-15T10:00:51;14.60;99.90
19435;DHT22;9853;50.848;4.108;2024-02-15T10:03:21;14.60;99.90
19435;DHT22;9853;50.848;4.108;2024-02-15T10:05:23;14.60;99.90
19435;DHT22;9853;50.848;4.108;2024-02-15T10:07:27;14.90;99.90
19435;DHT22;9853;50.848;4.108;2024-02-15T10:09:44;14.90;99.90
19435;DHT22;9853;50.848;4.108;2024-02-15T10:12:07;15.20;99.90
19435;DHT22;9853;50.848;4.108;2024-02-15T10:14:12;15.10;99.90
19435;DHT22;9853;50.848;4.108;2024-02-15T10:16:26;15.10;99.90
19435;DHT22;9853;50.848;4.108;2024-02-15T10:18:27;15.20;99.90
19435;DHT22;9853;50.848;4.108;2024-02-15T10:20:28;15.40;99.90
19435;DHT22;9853;50.848;4.108;2024-02-15T10:22:50;15.60;99.90
19435;DHT22;9853;50.848;4.108;2024-02-15T10:25:10;15.80;99.90
19435;DHT22;9853;50.848;4.108;2024-02-15T10:27:23;15.80;99.90
19435;DHT22;9853;50.848;4.108;2024-02-15T10:29:24;15.70;99.90
19435;DHT22;9853;50.848;4.108;2024-02-15T10:31:28;15.80;99.90
19435;DHT22;9853;50.848;4.108;2024-02-15T10:33:32;15.80;99.90
19435;DHT22;9853;50.848;4.108;2024-02-15T10:35:35;16.10;99.90
19435;DHT22;9853;50.848;4.108;2024-02-15T10:37:37;15.80;99.90
19435;DHT22;9853;50.848;4.108;2024-02-15T10:39:38;15.80;99.90
19435;DHT22;9853;50.848;4.108;2024-02-15T10:41:40;15.80;99.90
19435;DHT22;9853;50.848;4.108;2024-02-15T10:44:23;16.00;99.90
19435;DHT22;9853;50.848;4.108;2024-02-15T10:46:36;16.20;99.90
19435;DHT22;9853;50.848;4.108;2024-02-15T10:48:56;16.40;99.90
19435;DHT22;9853;50.848;4.108;2024-02-15T10:51:03;16.30;99.90
19435;DHT22;9853;50.848;4.108;2024-02-15T10:53:40;16.20;99.90
19435;DHT22;9853;50.848;4.108;2024-02-15T10:59:39;16.20;99.90
19435;DHT22;9853;50.848;4.108;2024-02-15T11:05:35;16.50;99.90
19435;DHT22;9853;50.848;4.108;2024-02-15T11:08:20;16.30;99.90
19435;DHT22;9853;50.848;4.108;2024-02-15T11:22:56;16.80;99.90
19435;DHT22;9853;50.848;4.108;2024-02-15T11:25:49;16.90;99.90
19435;DHT22;9853;50.848;4.108;2024-02-15T11:30:41;16.70;99.90
19435;DHT22;9853;50.848;4.108;2024-02-15T11:36:12;16.70;99.90
19435;DHT22;9853;50.848;4.108;2024-02-15T11:41:38;16.70;99.90
19435;DHT22;9853;50.848;4.108;2024-02-15T11:44:05;16.80;99.90
19435;DHT22;9853;50.848;4.108;2024-02-15T11:46:32;17.00;99.90
19435;DHT22;9853;50.848;4.108;2024-02-15T11:49:05;17.20;99.90
19435;DHT22;9853;50.848;4.108;2024-02-15T11:57:15;17.10;99.90
19435;DHT22;9853;50.848;4.108;2024-02-15T12:03:18;17.20;99.90
19435;DHT22;9853;50.848;4.108;2024-02-15T12:06:06;17.10;99.90
19435;DHT22;9853;50.848;4.108;2024-02-15T12:09:01;17.00;99.90
19435;DHT22;9853;50.848;4.108;2024-02-15T12:12:10;16.90;99.90
19435;DHT22;9853;50.848;4.108;2024-02-15T12:17:48;16.90;99.90
19435;DHT22;9853;50.848;4.108;2024-02-15T12:20:10;17.00;99.90
19435;DHT22;9853;50.848;4.108;2024-02-15T12:26:37;17.40;99.90
19435;DHT22;9853;50.848;4.108;2024-02-15T12:41:58;18.30;99.90
19435;DHT22;9853;50.848;4.108;2024-02-15T12:58:06;18.50;99.90
19435;DHT22;9853;50.848;4.108;2024-02-15T13:00:13;18.60;99.90
19435;DHT22;9853;50.848;4.108;2024-02-15T13:02:51;18.60;99.90
19435;DHT22;9853;50.848;4.108;2024-02-15T13:04:58;18.40;99.90
19435;DHT22;9853;50.848;4.108;2024-02-15T13:07:16;18.60;99.90
19435;DHT22;9853;50.848;4.108;2024-02-15T13:09:17;18.70;99.90
19435;DHT22;9853;50.848;4.108;2024-02-15T13:11:22;18.40;99.90
19435;DHT22;9853;50.848;4.108;2024-02-15T13:13:29;18.50;99.90
19435;DHT22;9853;50.848;4.108;2024-02-15T13:15:42;18.70;99.90
19435;DHT22;9853;50.848;4.108;2024-02-15T13:18:10;18.70;99.90
19435;DHT22;9853;50.848;4.108;2024-02-15T13:20:19;18.70;99.90
19435;DHT22;9853;50.848;4.108;2024-02-15T13:22:32;18.80;99.90
19435;DHT22;9853;50.848;4.108;2024-02-15T13:24:36;18.90;99.90
19435;DHT22;9853;50.848;4.108;2024-02-15T13:26:39;19.00;99.90
19435;DHT22;9853;50.848;4.108;2024-02-15T13:28:48;18.70;99.90
19435;DHT22;9853;50.848;4.108;2024-02-15T13:30:58;18.90;99.90
19435;DHT22;9853;50.848;4.108;2024-02-15T13:33:02;19.00;99.90
19435;DHT22;9853;50.848;4.108;2024-02-15T13:35:23;19.00;99.90
19435;DHT22;9853;50.848;4.108;2024-02-15T13:37:24;19.00;99.90
19435;DHT22;9853;50.848;4.108;2024-02-15T13:39:29;18.70;99.90
19435;DHT22;9853;50.848;4.108;2024-02-15T13:41:36;18.90;99.90
19435;DHT22;9853;50.848;4.108;2024-02-15T13:43:37;18.90;99.90
19435;DHT22;9853;50.848;4.108;2024-02-15T13:45:40;19.00;99.90
19435;DHT22;9853;50.848;4.108;2024-02-15T13:47:45;18.90;99.90
19435;DHT22;9853;50.848;4.108;2024-02-15T13:49:51;18.70;99.90
19435;DHT22;9853;50.848;4.108;2024-02-15T13:51:52;18.40;99.90
19435;DHT22;9853;50.848;4.108;2024-02-15T13:53:54;18.50;99.90
19435;DHT22;9853;50.848;4.108;2024-02-15T13:55:59;18.20;99.90
19435;DHT22;9853;50.848;4.108;2024-02-15T13:58:00;18.30;99.90
19435;DHT22;9853;50.848;4.108;2024-02-15T14:00:12;18.60;99.90
19435;DHT22;9853;50.848;4.108;2024-02-15T14:02:26;18.70;99.90
19435;DHT22;9853;50.848;4.108;2024-02-15T14:04:27;18.40;99.90
19435;DHT22;9853;50.848;4.108;2024-02-15T14:06:30;18.60;99.90
19435;DHT22;9853;50.848;4.108;2024-02-15T14:08:46;18.50;99.90
19435;DHT22;9853;50.848;4.108;2024-02-15T14:10:47;18.30;99.90
19435;DHT22;9853;50.848;4.108;2024-02-15T14:12:53;18.30;99.90
19435;DHT22;9853;50.848;4.108;2024-02-15T14:14:59;18.40;99.90
19435;DHT22;9853;50.848;4.108;2024-02-15T14:17:05;18.20;99.90
19435;DHT22;9853;50.848;4.108;2024-02-15T14:19:12;18.10;99.90
19435;DHT22;9853;50.848;4.108;2024-02-15T14:21:13;18.00;99.90
19435;DHT22;9853;50.848;4.108;2024-02-15T14:23:28;18.10;99.90
19435;DHT22;9853;50.848;4.108;2024-02-15T14:25:50;18.00;99.90
19435;DHT22;9853;50.848;4.108;2024-02-15T14:27:57;17.90;99.90
19435;DHT22;9853;50.848;4.108;2024-02-15T14:29:59;17.90;99.90
19435;DHT22;9853;50.848;4.108;2024-02-15T14:32:21;17.70;99.90
19435;DHT22;9853;50.848;4.108;2024-02-15T14:34:48;17.90;99.90
19435;DHT22;9853;50.848;4.108;2024-02-15T14:39:35;18.20;99.90
19435;DHT22;9853;50.848;4.108;2024-02-15T14:41:49;18.10;99.90
19435;DHT22;9853;50.848;4.108;2024-02-15T14:44:03;17.90;99.90
19435;DHT22;9853;50.848;4.108;2024-02-15T14:46:22;17.90;99.90
19435;DHT22;9853;50.848;4.108;2024-02-15T14:48:38;18.00;99.90
19435;DHT22;9853;50.848;4.108;2024-02-15T14:50:52;17.90;99.90